Time;durP1;ratioP1;P1;durP2;ratioP2;P2;SDS_P1;SDS_P2;PMS_P1;PMS_P2;Temp;Humidity;BMP_temperature;BMP_pressure;BME280_temperature;BME280_humidity;BME280_pressure;Samples;Min_cycle;Max_cycle;Signal;HPM_P1;HPM_P2
2023/07/21 00:01:53;;;;;;;2.85;1.13;;;;;;;;;;5098614;28;20058;-75
2023/07/21 00:04:23;;;;;;;1.85;1.67;;;;;;;;;;5116547;28;20051;-75
2023/07/21 00:06:49;;;;;;;2.65;1.23;;;;;;;;;;5116457;28;20050;-75
2023/07/21 00:09:16;;;;;;;2.25;1.23;;;;;;;;;;5116451;28;20079;-75
2023/07/21 00:11:42;;;;;;;3.08;1.17;;;;;;;;;;5115313;28;20083;-75
2023/07/21 00:14:10;;;;;;;1.85;0.80;;;;;;;;;;5116916;28;20081;-75
2023/07/21 00:16:37;;;;;;;1.30;0.80;;;;;;;;;;5116352;28;20130;-75
2023/07/21 00:19:04;;;;;;;2.22;1.13;;;;;;;;;;5116908;28;20381;-75
2023/07/21 00:21:30;;;;;;;1.48;0.90;;;;;;;;;;5116163;28;20060;-75
2023/07/21 00:23:57;;;;;;;1.00;0.90;;;;;;;;;;5098200;28;20051;-75
2023/07/21 00:26:24;;;;;;;1.77;0.82;;;;;;;;;;5115980;28;20054;-75
2023/07/21 00:28:50;;;;;;;2.20;1.17;;;;;;;;;;5116547;28;20075;-75
2023/07/21 00:31:16;;;;;;;1.83;1.10;;;;;;;;;;5115014;28;20043;-76
2023/07/21 00:33:42;;;;;;;2.13;1.08;;;;;;;;;;5116229;28;20132;-76
2023/07/21 00:36:08;;;;;;;1.73;1.30;;;;;;;;;;5115894;28;20127;-75
2023/07/21 00:38:35;;;;;;;2.85;1.50;;;;;;;;;;5115855;28;20035;-75
2023/07/21 00:41:01;;;;;;;1.67;1.10;;;;;;;;;;5114786;28;20043;-75
2023/07/21 00:43:27;;;;;;;1.65;1.13;;;;;;;;;;5115637;28;20400;-75
2023/07/21 00:45:53;;;;;;;2.20;1.15;;;;;;;;;;5115512;28;20570;-75
2023/07/21 00:48:19;;;;;;;2.45;1.00;;;;;;;;;;5114646;28;20075;-75
2023/07/21 00:50:48;;;;;;;3.33;1.10;;;;;;;;;;5115579;28;20048;-75
2023/07/21 00:53:14;;;;;;;4.20;1.30;;;;;;;;;;5114273;28;20067;-76
2023/07/21 00:55:47;;;;;;;2.10;1.08;;;;;;;;;;5115534;28;20044;-75
2023/07/21 00:58:13;;;;;;;2.63;1.10;;;;;;;;;;5115558;28;20092;-75
2023/07/21 01:00:40;;;;;;;1.38;0.95;;;;;;;;;;5115441;28;20079;-75
2023/07/21 01:03:07;;;;;;;1.48;0.93;;;;;;;;;;5097680;28;20050;-75
2023/07/21 01:05:35;;;;;;;1.40;0.88;;;;;;;;;;5115059;28;20477;-75
2023/07/21 01:08:04;;;;;;;2.10;0.75;;;;;;;;;;5115208;28;20061;-75
2023/07/21 01:10:31;;;;;;;4.05;1.40;;;;;;;;;;5115086;28;20062;-75
2023/07/21 01:12:58;;;;;;;4.28;1.20;;;;;;;;;;5115185;28;20048;-75
2023/07/21 01:15:26;;;;;;;2.63;1.02;;;;;;;;;;5115198;28;20059;-75
2023/07/21 01:17:53;;;;;;;1.10;1.00;;;;;;;;;;5114939;28;20180;-75
2023/07/21 01:20:22;;;;;;;1.70;1.13;;;;;;;;;;5114254;28;20048;-75
2023/07/21 01:23:09;;;;;;;2.13;1.42;;;;;;;;;;5115032;28;20058;-75
2023/07/21 01:25:35;;;;;;;1.83;1.10;;;;;;;;;;5063381;28;20051;-75
2023/07/21 01:28:03;;;;;;;1.80;1.23;;;;;;;;;;5114916;28;20055;-75
2023/07/21 01:30:29;;;;;;;1.33;0.98;;;;;;;;;;5114401;28;20105;-75
2023/07/21 01:32:56;;;;;;;2.40;1.77;;;;;;;;;;5115350;28;20067;-75
2023/07/21 01:35:23;;;;;;;2.00;1.73;;;;;;;;;;5115340;28;20051;-75
2023/07/21 01:37:49;;;;;;;2.05;1.10;;;;;;;;;;5114786;28;20094;-75
2023/07/21 01:40:16;;;;;;;1.75;1.27;;;;;;;;;;5113912;28;20096;-75
2023/07/21 01:42:43;;;;;;;1.52;1.17;;;;;;;;;;5113639;28;20512;-75
2023/07/21 01:45:10;;;;;;;2.47;1.40;;;;;;;;;;5113653;28;20047;-75
2023/07/21 01:47:36;;;;;;;2.05;1.48;;;;;;;;;;5113566;28;20497;-75
2023/07/21 01:50:13;;;;;;;1.55;1.25;;;;;;;;;;5114498;28;20043;-75
2023/07/21 01:52:40;;;;;;;2.13;1.50;;;;;;;;;;5114613;28;20043;-75
2023/07/21 01:55:19;;;;;;;1.70;1.40;;;;;;;;;;5114156;28;20504;-75
2023/07/21 01:57:49;;;;;;;4.60;1.80;;;;;;;;;;5114744;28;20400;-74
2023/07/21 02:00:15;;;;;;;2.80;1.40;;;;;;;;;;5114957;28;20116;-75
2023/07/21 02:02:42;;;;;;;2.58;1.50;;;;;;;;;;5114662;28;20118;-75
2023/07/21 02:05:22;;;;;;;1.38;1.27;;;;;;;;;;5114314;28;20145;-75
2023/07/21 02:07:48;;;;;;;1.75;1.40;;;;;;;;;;5113010;28;20051;-75
2023/07/21 02:10:14;;;;;;;1.40;0.90;;;;;;;;;;5113121;28;20043;-75
2023/07/21 02:12:40;;;;;;;1.25;0.85;;;;;;;;;;5113209;28;20086;-75
2023/07/21 02:15:07;;;;;;;1.70;0.73;;;;;;;;;;5113221;28;20135;-75
2023/07/21 02:17:33;;;;;;;0.82;0.82;;;;;;;;;;5114037;28;20050;-75
2023/07/21 02:19:59;;;;;;;1.10;0.60;;;;;;;;;;5113976;28;20093;-75
2023/07/21 02:22:26;;;;;;;2.75;1.08;;;;;;;;;;5113883;28;20087;-75
2023/07/21 02:24:52;;;;;;;2.47;0.82;;;;;;;;;;5114299;28;20047;-75
2023/07/21 02:27:18;;;;;;;2.22;1.00;;;;;;;;;;5114266;28;20058;-75
2023/07/21 02:29:51;;;;;;;1.77;1.02;;;;;;;;;;5112745;28;20477;-75
2023/07/21 02:32:17;;;;;;;2.25;1.30;;;;;;;;;;5113261;28;20039;-75
2023/07/21 02:34:43;;;;;;;3.05;1.25;;;;;;;;;;5114696;28;20043;-75
2023/07/21 02:37:09;;;;;;;1.77;1.42;;;;;;;;;;5113946;28;20489;-75
2023/07/21 02:39:35;;;;;;;5.05;1.50;;;;;;;;;;5113887;28;20127;-75
2023/07/21 02:42:01;;;;;;;1.38;1.27;;;;;;;;;;5112615;28;20051;-75
2023/07/21 02:44:27;;;;;;;3.13;1.80;;;;;;;;;;5118747;28;20096;-75
2023/07/21 02:46:54;;;;;;;1.80;1.70;;;;;;;;;;5118865;28;20043;-75
2023/07/21 02:49:20;;;;;;;1.80;1.33;;;;;;;;;;5117969;28;20040;-75
2023/07/21 02:51:46;;;;;;;4.63;2.20;;;;;;;;;;5118057;28;20052;-75
2023/07/21 02:54:12;;;;;;;4.70;2.45;;;;;;;;;;5117748;28;20044;-81
2023/07/21 02:56:39;;;;;;;2.33;1.98;;;;;;;;;;5099968;28;20059;-78
2023/07/21 02:59:05;;;;;;;5.28;2.10;;;;;;;;;;5100323;28;20089;-78
2023/07/21 03:01:31;;;;;;;2.50;2.30;;;;;;;;;;5117534;28;20512;-79
2023/07/21 03:03:57;;;;;;;2.67;2.30;;;;;;;;;;5117689;28;20058;-79
2023/07/21 03:06:23;;;;;;;3.10;2.45;;;;;;;;;;5100052;28;20050;-78
2023/07/21 03:08:49;;;;;;;3.83;2.15;;;;;;;;;;5117645;28;20069;-78
2023/07/21 03:11:17;;;;;;;2.70;2.20;;;;;;;;;;5116571;28;20545;-79
2023/07/21 03:13:44;;;;;;;2.90;2.33;;;;;;;;;;5116637;28;20044;-78
2023/07/21 03:16:12;;;;;;;2.95;2.47;;;;;;;;;;5117185;28;20116;-78
2023/07/21 03:18:39;;;;;;;2.13;2.03;;;;;;;;;;5099178;28;20050;-78
2023/07/21 03:21:05;;;;;;;2.40;2.15;;;;;;;;;;5116300;28;20152;-78
2023/07/21 03:23:31;;;;;;;2.42;2.10;;;;;;;;;;5117354;28;20093;-78
2023/07/21 03:25:57;;;;;;;3.28;2.53;;;;;;;;;;5116389;28;20047;-78
2023/07/21 03:28:25;;;;;;;2.10;2.00;;;;;;;;;;5117812;28;20048;-78
2023/07/21 03:30:58;;;;;;;2.30;2.10;;;;;;;;;;5116294;28;20058;-78
2023/07/21 03:33:24;;;;;;;2.72;2.53;;;;;;;;;;5116269;28;20043;-81
2023/07/21 03:35:57;;;;;;;2.55;2.33;;;;;;;;;;5117162;28;20080;-79
2023/07/21 03:38:23;;;;;;;2.55;2.35;;;;;;;;;;5117164;28;20086;-78
2023/07/21 03:40:49;;;;;;;2.42;2.13;;;;;;;;;;5098715;28;20489;-78
2023/07/21 03:43:15;;;;;;;2.80;2.70;;;;;;;;;;5117787;28;20489;-78
2023/07/21 03:45:41;;;;;;;4.07;2.72;;;;;;;;;;5117058;28;20052;-78
2023/07/21 03:48:08;;;;;;;1.95;1.85;;;;;;;;;;5115647;28;20055;-78
2023/07/21 03:50:34;;;;;;;2.75;2.55;;;;;;;;;;5098868;28;20057;-79
2023/07/21 03:53:00;;;;;;;3.63;2.92;;;;;;;;;;5098296;28;20040;-78
2023/07/21 03:55:26;;;;;;;2.97;2.78;;;;;;;;;;5098835;28;20477;-78
2023/07/21 03:57:52;;;;;;;3.05;2.85;;;;;;;;;;5116764;28;20055;-78
2023/07/21 04:00:18;;;;;;;3.17;2.97;;;;;;;;;;5117266;28;20044;-79
2023/07/21 04:02:44;;;;;;;4.30;2.28;;;;;;;;;;5115364;28;20503;-78
2023/07/21 04:05:10;;;;;;;5.45;3.35;;;;;;;;;;5116271;28;20427;-78
2023/07/21 04:07:37;;;;;;;2.88;2.67;;;;;;;;;;5117338;28;20047;-78
2023/07/21 04:10:03;;;;;;;3.53;3.25;;;;;;;;;;5115319;28;20043;-81
2023/07/21 04:12:29;;;;;;;3.42;2.65;;;;;;;;;;5116316;28;20054;-78
2023/07/21 04:14:55;;;;;;;5.88;2.58;;;;;;;;;;5116433;28;20055;-79
2023/07/21 04:17:23;;;;;;;2.78;2.58;;;;;;;;;;5115491;28;20079;-79
2023/07/21 04:19:49;;;;;;;3.55;2.45;;;;;;;;;;5115020;28;20060;-78
2023/07/21 04:22:16;;;;;;;2.40;2.20;;;;;;;;;;5116832;28;20134;-78
2023/07/21 04:24:42;;;;;;;3.67;2.90;;;;;;;;;;5115084;28;20048;-78
2023/07/21 04:27:09;;;;;;;2.40;2.25;;;;;;;;;;5116186;28;20043;-78
2023/07/21 04:29:35;;;;;;;4.20;2.65;;;;;;;;;;5116098;28;20046;-78
2023/07/21 04:32:01;;;;;;;4.15;2.70;;;;;;;;;;5116240;28;20067;-78
2023/07/21 04:34:27;;;;;;;2.92;2.72;;;;;;;;;;5098271;28;20054;-79
2023/07/21 04:36:53;;;;;;;2.45;2.35;;;;;;;;;;5114860;28;20046;-79
2023/07/21 04:39:20;;;;;;;3.72;3.20;;;;;;;;;;5115037;28;20054;-79
2023/07/21 04:41:46;;;;;;;3.38;2.97;;;;;;;;;;5114920;28;20134;-80
2023/07/21 04:44:12;;;;;;;3.60;3.30;;;;;;;;;;5115943;28;20043;-80
2023/07/21 04:46:38;;;;;;;3.13;2.92;;;;;;;;;;5115709;28;20047;-79
2023/07/21 04:49:07;;;;;;;4.00;2.92;;;;;;;;;;5115771;28;20070;-79
2023/07/21 04:51:33;;;;;;;4.60;3.10;;;;;;;;;;5114714;28;20070;-79
2023/07/21 04:53:59;;;;;;;3.22;2.80;;;;;;;;;;5114404;28;20040;-79
2023/07/21 04:56:26;;;;;;;3.13;2.85;;;;;;;;;;5116440;28;20047;-79
2023/07/21 04:58:53;;;;;;;3.05;2.78;;;;;;;;;;5114811;28;20499;-79
2023/07/21 05:01:19;;;;;;;2.47;2.28;;;;;;;;;;5114549;28;20126;-79
2023/07/21 05:03:45;;;;;;;2.95;2.80;;;;;;;;;;5114321;28;20047;-79
2023/07/21 05:06:11;;;;;;;2.30;2.20;;;;;;;;;;5114296;28;20497;-79
2023/07/21 05:08:37;;;;;;;2.45;2.05;;;;;;;;;;5115340;28;20039;-79
2023/07/21 05:11:03;;;;;;;3.08;2.78;;;;;;;;;;5097672;28;20079;-80
2023/07/21 05:13:29;;;;;;;5.05;2.30;;;;;;;;;;5114222;28;20054;-79
2023/07/21 05:15:56;;;;;;;3.20;2.38;;;;;;;;;;5114310;28;20043;-79
2023/07/21 05:18:22;;;;;;;2.65;1.90;;;;;;;;;;5114254;28;20055;-80
2023/07/21 05:20:48;;;;;;;3.78;2.35;;;;;;;;;;5113718;28;20055;-79
2023/07/21 05:23:14;;;;;;;5.28;2.92;;;;;;;;;;5113929;28;20079;-79
2023/07/21 05:25:40;;;;;;;5.22;2.38;;;;;;;;;;5114323;28;20363;-79
2023/07/21 05:28:07;;;;;;;3.38;2.40;;;;;;;;;;5097854;28;20043;-79
2023/07/21 05:30:34;;;;;;;4.05;2.35;;;;;;;;;;5115014;28;20050;-79
2023/07/21 05:33:00;;;;;;;2.22;2.08;;;;;;;;;;5114906;28;20056;-79
2023/07/21 05:35:28;;;;;;;2.45;2.25;;;;;;;;;;5115082;28;20047;-78
2023/07/21 05:37:55;;;;;;;2.30;1.90;;;;;;;;;;5114545;28;20044;-78
2023/07/21 05:40:21;;;;;;;2.22;1.63;;;;;;;;;;5097117;28;20051;-79
2023/07/21 05:42:47;;;;;;;2.25;1.52;;;;;;;;;;5114709;28;20054;-78
2023/07/21 05:45:13;;;;;;;3.15;1.75;;;;;;;;;;5114717;28;20128;-78
2023/07/21 05:47:39;;;;;;;4.50;1.33;;;;;;;;;;5113725;28;20047;-78
2023/07/21 05:50:06;;;;;;;2.85;1.70;;;;;;;;;;5114569;28;20035;-79
2023/07/21 05:52:33;;;;;;;5.65;1.52;;;;;;;;;;5114034;28;20039;-78
2023/07/21 05:55:00;;;;;;;3.00;2.42;;;;;;;;;;5114794;28;20567;-79
2023/07/21 05:57:27;;;;;;;3.10;1.90;;;;;;;;;;5114548;28;20439;-79
2023/07/21 05:59:53;;;;;;;3.05;2.55;;;;;;;;;;5115340;28;20035;-78
2023/07/21 06:02:19;;;;;;;2.85;2.65;;;;;;;;;;5114539;28;20058;-79
2023/07/21 06:04:46;;;;;;;3.10;2.78;;;;;;;;;;5113304;28;20040;-78
2023/07/21 06:07:12;;;;;;;3.03;2.15;;;;;;;;;;5114664;28;20515;-78
2023/07/21 06:09:38;;;;;;;3.20;2.17;;;;;;;;;;5114351;28;20048;-79
2023/07/21 06:12:05;;;;;;;3.05;2.40;;;;;;;;;;5114124;28;20043;-79
2023/07/21 06:14:31;;;;;;;2.63;2.22;;;;;;;;;;5114337;28;20493;-78
2023/07/21 06:16:57;;;;;;;2.00;1.75;;;;;;;;;;5113953;28;20051;-78
2023/07/21 06:19:23;;;;;;;4.25;2.10;;;;;;;;;;5113483;28;20047;-78
2023/07/21 06:21:50;;;;;;;3.45;1.70;;;;;;;;;;5112840;28;20051;-79
2023/07/21 06:24:17;;;;;;;2.60;1.60;;;;;;;;;;5113048;28;20043;-78
2023/07/21 06:26:43;;;;;;;2.92;1.90;;;;;;;;;;5096331;28;20544;-79
2023/07/21 06:29:09;;;;;;;3.03;2.22;;;;;;;;;;5113999;28;20043;-79
2023/07/21 06:31:35;;;;;;;2.72;1.95;;;;;;;;;;5114129;28;20048;-79
2023/07/21 06:34:01;;;;;;;3.45;1.80;;;;;;;;;;5113119;28;20047;-79
2023/07/21 06:36:27;;;;;;;3.47;1.48;;;;;;;;;;5112963;28;20051;-79
2023/07/21 06:38:53;;;;;;;2.13;1.35;;;;;;;;;;5112915;28;20047;-79
2023/07/21 06:41:19;;;;;;;2.72;1.40;;;;;;;;;;5113946;28;20043;-79
2023/07/21 06:43:45;;;;;;;1.45;1.08;;;;;;;;;;5113784;28;20411;-79
2023/07/21 06:46:12;;;;;;;2.55;0.82;;;;;;;;;;5113257;28;20091;-79
2023/07/21 06:48:38;;;;;;;2.53;0.85;;;;;;;;;;5113671;28;20381;-79
2023/07/21 06:51:04;;;;;;;1.35;0.90;;;;;;;;;;5114581;28;20044;-79
2023/07/21 06:53:31;;;;;;;1.70;0.80;;;;;;;;;;5114698;28;20048;-79
2023/07/21 06:55:57;;;;;;;1.80;0.80;;;;;;;;;;5113599;28;20560;-79
2023/07/21 06:58:23;;;;;;;3.50;0.93;;;;;;;;;;5114461;28;20164;-79
2023/07/21 07:00:49;;;;;;;1.30;0.70;;;;;;;;;;5113470;28;20577;-80
2023/07/21 07:03:15;;;;;;;1.95;0.70;;;;;;;;;;5113122;28;20059;-79
2023/07/21 07:05:45;;;;;;;3.03;0.52;;;;;;;;;;5112622;28;20130;-80
2023/07/21 07:08:12;;;;;;;1.80;0.70;;;;;;;;;;5095473;28;20079;-80
2023/07/21 07:10:39;;;;;;;2.15;0.80;;;;;;;;;;5095666;28;20541;-81
2023/07/21 07:13:05;;;;;;;1.88;0.77;;;;;;;;;;5112428;28;20082;-80
2023/07/21 07:15:31;;;;;;;1.48;0.90;;;;;;;;;;5112755;28;20055;-80
2023/07/21 07:17:58;;;;;;;1.10;0.70;;;;;;;;;;5114467;28;20048;-80
2023/07/21 07:20:25;;;;;;;1.67;0.65;;;;;;;;;;5096194;28;20124;-80
2023/07/21 07:22:51;;;;;;;0.77;0.40;;;;;;;;;;5112119;28;20043;-80
2023/07/21 07:25:18;;;;;;;1.08;0.50;;;;;;;;;;5113578;28;20140;-80
2023/07/21 07:27:44;;;;;;;1.90;0.50;;;;;;;;;;5112627;28;20047;-80
2023/07/21 07:30:11;;;;;;;2.58;0.43;;;;;;;;;;5116684;28;20044;-80
2023/07/21 07:32:37;;;;;;;1.77;0.50;;;;;;;;;;5116444;28;20051;-80
2023/07/21 07:35:03;;;;;;;0.82;0.40;;;;;;;;;;5116454;28;20047;-80
2023/07/21 07:37:29;;;;;;;1.73;0.40;;;;;;;;;;5117896;28;20130;-80
2023/07/21 07:39:55;;;;;;;1.40;0.30;;;;;;;;;;5100235;28;20384;-80
2023/07/21 07:42:23;;;;;;;3.30;0.50;;;;;;;;;;5116176;28;20044;-80
2023/07/21 07:44:49;;;;;;;0.95;0.40;;;;;;;;;;5116010;28;20431;-80
2023/07/21 07:47:15;;;;;;;0.98;0.30;;;;;;;;;;5116153;28;20130;-80
2023/07/21 07:49:41;;;;;;;0.70;0.20;;;;;;;;;;5117027;28;20130;-80
2023/07/21 07:52:08;;;;;;;1.10;0.30;;;;;;;;;;5116431;28;20358;-80
2023/07/21 07:54:35;;;;;;;0.57;0.20;;;;;;;;;;5116239;28;20138;-80
2023/07/21 07:57:01;;;;;;;1.20;0.20;;;;;;;;;;5115694;28;20054;-80
2023/07/21 07:59:27;;;;;;;1.38;0.50;;;;;;;;;;5115992;28;20525;-80
2023/07/21 08:01:53;;;;;;;0.63;0.20;;;;;;;;;;5116761;28;20047;-80
2023/07/21 08:04:19;;;;;;;1.23;0.35;;;;;;;;;;5098861;28;20050;-80
2023/07/21 08:06:46;;;;;;;3.20;0.30;;;;;;;;;;5115841;28;20431;-80
2023/07/21 08:09:13;;;;;;;1.08;0.38;;;;;;;;;;5116563;28;20047;-80
2023/07/21 08:11:39;;;;;;;0.60;0.30;;;;;;;;;;5116667;28;20047;-81
2023/07/21 08:14:05;;;;;;;1.10;0.30;;;;;;;;;;5115638;28;20056;-80
2023/07/21 08:16:31;;;;;;;1.38;0.20;;;;;;;;;;5098564;28;20101;-81
2023/07/21 08:18:57;;;;;;;1.05;0.30;;;;;;;;;;5115759;28;20134;-80
2023/07/21 08:21:24;;;;;;;0.68;0.30;;;;;;;;;;5115196;28;20058;-81
2023/07/21 08:23:51;;;;;;;0.50;0.30;;;;;;;;;;5115433;28;20043;-80
2023/07/21 08:26:20;;;;;;;0.50;0.20;;;;;;;;;;5116232;28;20052;-80
2023/07/21 08:28:46;;;;;;;0.77;0.20;;;;;;;;;;5115144;28;20047;-80
2023/07/21 08:31:12;;;;;;;0.65;0.20;;;;;;;;;;5115095;28;20134;-80
2023/07/21 08:33:39;;;;;;;0.25;0.10;;;;;;;;;;5116483;28;20047;-80
2023/07/21 08:36:05;;;;;;;1.17;0.25;;;;;;;;;;5114880;28;20040;-81
2023/07/21 08:38:35;;;;;;;0.65;0.20;;;;;;;;;;5116161;28;20136;-80
2023/07/21 08:41:08;;;;;;;0.60;0.20;;;;;;;;;;5116582;28;20083;-81
2023/07/21 08:43:34;;;;;;;0.70;0.20;;;;;;;;;;5116027;28;20046;-81
2023/07/21 08:46:01;;;;;;;0.40;0.10;;;;;;;;;;5098025;28;20101;-80
2023/07/21 08:48:28;;;;;;;0.80;0.20;;;;;;;;;;5097929;28;20043;-81
2023/07/21 08:50:55;;;;;;;2.20;0.20;;;;;;;;;;5098270;28;20051;-80
2023/07/21 08:53:24;;;;;;;0.50;0.20;;;;;;;;;;5116263;28;20170;-80
2023/07/21 08:55:51;;;;;;;0.75;0.20;;;;;;;;;;5115808;28;20051;-80
2023/07/21 08:58:17;;;;;;;1.13;0.20;;;;;;;;;;5114723;28;20050;-80
2023/07/21 09:00:43;;;;;;;1.38;0.30;;;;;;;;;;5115758;28;20044;-80
2023/07/21 09:03:09;;;;;;;0.65;0.25;;;;;;;;;;5114665;28;20126;-81
2023/07/21 09:05:35;;;;;;;0.50;0.20;;;;;;;;;;5116310;28;20047;-81
2023/07/21 09:08:03;;;;;;;0.73;0.20;;;;;;;;;;5115503;28;20082;-80
2023/07/21 09:10:31;;;;;;;0.68;0.20;;;;;;;;;;5114405;28;20124;-81
2023/07/21 09:12:57;;;;;;;0.65;0.20;;;;;;;;;;5114455;28;20047;-80
2023/07/21 09:15:23;;;;;;;1.65;0.20;;;;;;;;;;5097151;28;20052;-80
2023/07/21 09:17:49;;;;;;;1.40;0.20;;;;;;;;;;5114410;28;20048;-80
2023/07/21 09:20:17;;;;;;;0.80;0.20;;;;;;;;;;5114089;28;20055;-80
2023/07/21 09:22:46;;;;;;;0.47;0.20;;;;;;;;;;5115258;28;20413;-81
2023/07/21 09:25:18;;;;;;;0.38;0.20;;;;;;;;;;5114114;28;20083;-80
2023/07/21 09:27:52;;;;;;;0.75;0.22;;;;;;;;;;5114566;28;20047;-80
2023/07/21 09:30:18;;;;;;;0.45;0.20;;;;;;;;;;5114344;28;20052;-80
2023/07/21 09:32:44;;;;;;;0.50;0.20;;;;;;;;;;5115031;28;20130;-80
2023/07/21 09:35:10;;;;;;;0.40;0.30;;;;;;;;;;5096947;28;20392;-80
2023/07/21 09:37:38;;;;;;;0.50;0.20;;;;;;;;;;5114050;28;20095;-80
2023/07/21 09:40:05;;;;;;;1.25;0.20;;;;;;;;;;5113908;28;20062;-80
2023/07/21 09:42:32;;;;;;;0.60;0.30;;;;;;;;;;5115691;28;20044;-81
2023/07/21 09:44:58;;;;;;;1.17;0.40;;;;;;;;;;5113995;28;20055;-80
2023/07/21 09:47:25;;;;;;;1.65;0.40;;;;;;;;;;5113964;28;20043;-81
2023/07/21 09:49:53;;;;;;;0.38;0.38;;;;;;;;;;5114515;28;20078;-81
2023/07/21 09:52:20;;;;;;;1.58;0.40;;;;;;;;;;5114267;28;20044;-80
2023/07/21 09:54:48;;;;;;;0.70;0.30;;;;;;;;;;5114911;28;20503;-81
2023/07/21 09:57:17;;;;;;;1.40;0.20;;;;;;;;;;5115459;28;20126;-80
2023/07/21 09:59:48;;;;;;;0.43;0.20;;;;;;;;;;5114642;28;20481;-80
2023/07/21 10:02:15;;;;;;;0.45;0.20;;;;;;;;;;5113857;28;20061;-81
2023/07/21 10:04:42;;;;;;;0.40;0.20;;;;;;;;;;5113594;28;20362;-80
2023/07/21 10:07:09;;;;;;;1.33;0.20;;;;;;;;;;5113737;28;20130;-81
2023/07/21 10:09:36;;;;;;;0.60;0.20;;;;;;;;;;5097313;28;20126;-81
2023/07/21 10:12:17;;;;;;;0.35;0.20;;;;;;;;;;5113185;28;20104;-81
2023/07/21 10:14:44;;;;;;;0.68;0.28;;;;;;;;;;5113087;28;20043;-80
2023/07/21 10:17:11;;;;;;;0.88;0.20;;;;;;;;;;5113612;28;20039;-81
2023/07/21 10:19:40;;;;;;;0.35;0.20;;;;;;;;;;5112862;28;20044;-79
2023/07/21 10:22:11;;;;;;;0.40;0.20;;;;;;;;;;5096093;28;20135;-80
2023/07/21 10:24:42;;;;;;;0.30;0.20;;;;;;;;;;5114121;28;20184;-80
2023/07/21 10:27:09;;;;;;;1.20;0.20;;;;;;;;;;5114164;28;20430;-80
2023/07/21 10:29:37;;;;;;;1.95;0.20;;;;;;;;;;5113055;28;20126;-80
2023/07/21 10:32:04;;;;;;;0.55;0.20;;;;;;;;;;5113100;28;20047;-80
2023/07/21 10:34:43;;;;;;;0.25;0.15;;;;;;;;;;5113961;28;20048;-80
2023/07/21 10:37:09;;;;;;;1.75;0.20;;;;;;;;;;5112925;28;20047;-80
2023/07/21 10:39:37;;;;;;;1.75;0.20;;;;;;;;;;5096133;28;20476;-80
2023/07/21 10:42:05;;;;;;;0.20;0.20;;;;;;;;;;5112858;28;20051;-80
2023/07/21 10:44:33;;;;;;;0.50;0.20;;;;;;;;;;5113703;28;20408;-80
2023/07/21 10:46:59;;;;;;;1.05;0.20;;;;;;;;;;5113181;28;20048;-81
2023/07/21 10:49:25;;;;;;;0.20;0.10;;;;;;;;;;5113940;28;20036;-80
2023/07/21 10:51:51;;;;;;;0.73;0.20;;;;;;;;;;5113765;28;20104;-80
2023/07/21 10:54:18;;;;;;;0.60;0.20;;;;;;;;;;5113987;28;20108;-80
2023/07/21 10:56:45;;;;;;;0.43;0.20;;;;;;;;;;5095617;28;20065;-80
2023/07/21 10:59:11;;;;;;;0.40;0.20;;;;;;;;;;5114159;28;20043;-80
2023/07/21 11:01:42;;;;;;;0.40;0.30;;;;;;;;;;5080157;28;20055;-80
2023/07/21 11:04:08;;;;;;;0.55;0.35;;;;;;;;;;5114913;28;20040;-80
2023/07/21 11:06:41;;;;;;;0.57;0.20;;;;;;;;;;5118614;28;20051;-81
2023/07/21 11:09:11;;;;;;;1.38;0.20;;;;;;;;;;5116871;28;20056;-81
2023/07/21 11:11:38;;;;;;;0.82;0.20;;;;;;;;;;5118421;28;20044;-80
2023/07/21 11:14:04;;;;;;;1.55;0.20;;;;;;;;;;5118431;28;20047;-81
2023/07/21 11:16:30;;;;;;;0.63;0.20;;;;;;;;;;5116825;28;20047;-80
2023/07/21 11:18:56;;;;;;;0.43;0.30;;;;;;;;;;5116592;28;20140;-81
2023/07/21 11:21:23;;;;;;;0.30;0.20;;;;;;;;;;5116387;28;20185;-81
2023/07/21 11:23:56;;;;;;;1.17;0.35;;;;;;;;;;5116654;28;20043;-81
2023/07/21 11:26:23;;;;;;;0.47;0.30;;;;;;;;;;5117680;28;20485;-80
2023/07/21 11:28:50;;;;;;;0.70;0.30;;;;;;;;;;5117390;28;20127;-80
2023/07/21 11:31:18;;;;;;;1.27;0.20;;;;;;;;;;5116729;28;20097;-80
2023/07/21 11:33:50;;;;;;;1.48;0.30;;;;;;;;;;5117724;28;20365;-80
2023/07/21 11:36:21;;;;;;;1.35;0.60;;;;;;;;;;5116751;28;20572;-80
2023/07/21 11:39:02;;;;;;;0.40;0.20;;;;;;;;;;5117397;28;20043;-81
2023/07/21 11:41:41;;;;;;;0.40;0.25;;;;;;;;;;5116347;28;20434;-81
2023/07/21 11:44:11;;;;;;;0.60;0.30;;;;;;;;;;5116604;28;20051;-81
2023/07/21 11:46:37;;;;;;;1.00;0.30;;;;;;;;;;5116901;28;20047;-80
2023/07/21 11:49:14;;;;;;;3.60;0.47;;;;;;;;;;5116257;28;20039;-80
2023/07/21 11:51:51;;;;;;;1.45;0.35;;;;;;;;;;5099141;28;20046;-81
2023/07/21 11:54:24;;;;;;;1.48;0.40;;;;;;;;;;5116895;28;20043;-80
2023/07/21 11:56:51;;;;;;;0.82;0.40;;;;;;;;;;5115884;28;20542;-81
2023/07/21 11:59:17;;;;;;;0.60;0.30;;;;;;;;;;5115665;28;20059;-81
2023/07/21 12:01:43;;;;;;;1.05;0.20;;;;;;;;;;5116742;28;20102;-81
2023/07/21 12:04:10;;;;;;;1.27;0.20;;;;;;;;;;5098911;28;20493;-80
2023/07/21 12:06:36;;;;;;;0.35;0.10;;;;;;;;;;5115832;28;20135;-80
2023/07/21 12:09:06;;;;;;;0.73;0.10;;;;;;;;;;5098670;28;20122;-81
2023/07/21 12:11:35;;;;;;;0.45;0.10;;;;;;;;;;5116588;28;20049;-81
2023/07/21 12:14:01;;;;;;;0.20;0.15;;;;;;;;;;5115299;28;20378;-81
2023/07/21 12:16:27;;;;;;;0.32;0.10;;;;;;;;;;5116588;28;20040;-81
2023/07/21 12:18:53;;;;;;;0.98;0.13;;;;;;;;;;5115537;28;20082;-81
2023/07/21 12:21:20;;;;;;;0.50;0.20;;;;;;;;;;5116489;28;20052;-81
2023/07/21 12:23:46;;;;;;;5.90;0.13;;;;;;;;;;5115502;28;20109;-81
2023/07/21 12:26:12;;;;;;;0.20;0.10;;;;;;;;;;5099174;28;20393;-81
2023/07/21 12:28:41;;;;;;;0.40;0.20;;;;;;;;;;5115241;28;20046;-82
2023/07/21 12:31:07;;;;;;;0.30;0.20;;;;;;;;;;5116367;28;20044;-81
2023/07/21 12:33:35;;;;;;;0.55;0.20;;;;;;;;;;5115125;28;20055;-81
2023/07/21 12:36:01;;;;;;;0.57;0.20;;;;;;;;;;5115811;28;20496;-81
2023/07/21 12:38:27;;;;;;;1.55;0.20;;;;;;;;;;5115191;28;20469;-81
2023/07/21 12:40:53;;;;;;;1.20;0.20;;;;;;;;;;5098196;28;20081;-82
2023/07/21 12:43:19;;;;;;;0.77;0.20;;;;;;;;;;5116684;28;20083;-82
2023/07/21 12:45:46;;;;;;;0.50;0.20;;;;;;;;;;5115082;28;20047;-82
2023/07/21 12:48:12;;;;;;;0.40;0.10;;;;;;;;;;5114809;28;20057;-82
2023/07/21 12:50:38;;;;;;;0.28;0.10;;;;;;;;;;5114423;28;20055;-81
2023/07/21 12:53:04;;;;;;;0.40;0.10;;;;;;;;;;5115274;28;20044;-82
2023/07/21 12:55:31;;;;;;;0.28;0.10;;;;;;;;;;5114908;28;20071;-82
2023/07/21 12:57:57;;;;;;;0.20;0.10;;;;;;;;;;5114618;28;20058;-81
2023/07/21 13:00:23;;;;;;;0.55;0.10;;;;;;;;;;5114671;28;20040;-82
2023/07/21 13:02:49;;;;;;;0.40;0.10;;;;;;;;;;5114688;28;20047;-82
2023/07/21 13:05:15;;;;;;;0.20;0.00;;;;;;;;;;5097717;28;20508;-81
2023/07/21 13:07:41;;;;;;;0.20;0.10;;;;;;;;;;5097833;28;20203;-82
2023/07/21 13:10:08;;;;;;;0.08;0.00;;;;;;;;;;5116099;28;20043;-82
2023/07/21 13:12:35;;;;;;;0.10;0.10;;;;;;;;;;5114810;28;20048;-82
2023/07/21 13:15:01;;;;;;;0.20;0.10;;;;;;;;;;5114358;28;20051;-82
2023/07/21 13:17:27;;;;;;;0.32;0.03;;;;;;;;;;5097255;28;20047;-82
2023/07/21 13:19:53;;;;;;;0.40;0.10;;;;;;;;;;5115772;28;20047;-82
2023/07/21 13:22:19;;;;;;;0.32;0.10;;;;;;;;;;5115296;28;20051;-81
2023/07/21 13:24:46;;;;;;;3.03;0.30;;;;;;;;;;5114742;28;20127;-82
2023/07/21 13:27:12;;;;;;;207.68;24.27;;;;;;;;;;5114471;28;20123;-81
2023/07/21 13:29:39;;;;;;;0.20;0.10;;;;;;;;;;5080583;28;20092;-82
2023/07/21 13:32:05;;;;;;;1.35;0.10;;;;;;;;;;5114866;28;20377;-82
2023/07/21 13:34:32;;;;;;;0.40;0.10;;;;;;;;;;5113896;28;20050;-81
2023/07/21 13:36:58;;;;;;;0.17;0.10;;;;;;;;;;5114047;28;20043;-82
2023/07/21 13:39:24;;;;;;;0.28;0.10;;;;;;;;;;5113877;28;20040;-81
2023/07/21 13:41:50;;;;;;;3.55;0.10;;;;;;;;;;5114467;28;20473;-82
2023/07/21 13:44:17;;;;;;;0.52;0.10;;;;;;;;;;5114940;28;20079;-81
2023/07/21 13:46:44;;;;;;;2.90;0.40;;;;;;;;;;5114803;28;20112;-81
2023/07/21 13:49:10;;;;;;;4.18;0.52;;;;;;;;;;5113641;28;20043;-81
2023/07/21 13:51:36;;;;;;;1.60;0.40;;;;;;;;;;5114672;28;20109;-81
2023/07/21 13:54:02;;;;;;;1.50;0.45;;;;;;;;;;5114708;28;20059;-82
2023/07/21 13:56:28;;;;;;;1.17;0.40;;;;;;;;;;5114491;28;20381;-81
2023/07/21 13:58:54;;;;;;;2.88;0.60;;;;;;;;;;5096747;28;20472;-82
2023/07/21 14:01:20;;;;;;;2.08;0.40;;;;;;;;;;5113102;28;20508;-82
2023/07/21 14:03:46;;;;;;;2.47;0.40;;;;;;;;;;5114502;28;20043;-82
2023/07/21 14:06:14;;;;;;;0.80;0.40;;;;;;;;;;5114310;28;20047;-82
2023/07/21 14:08:40;;;;;;;1.60;0.20;;;;;;;;;;5113289;28;20051;-82
2023/07/21 14:11:06;;;;;;;1.70;0.28;;;;;;;;;;5113408;28;20056;-83
2023/07/21 14:13:32;;;;;;;1.30;0.20;;;;;;;;;;5113469;28;20504;-82
2023/07/21 14:15:58;;;;;;;2.90;0.20;;;;;;;;;;5096522;28;20461;-82
2023/07/21 14:18:24;;;;;;;1.38;0.20;;;;;;;;;;5113403;28;20144;-82
2023/07/21 14:20:50;;;;;;;0.20;0.10;;;;;;;;;;5113098;28;20058;-82
2023/07/21 14:23:16;;;;;;;0.60;0.13;;;;;;;;;;5113156;28;20089;-82
2023/07/21 14:25:43;;;;;;;0.50;0.20;;;;;;;;;;5113597;28;20050;-82
2023/07/21 14:28:09;;;;;;;0.38;0.20;;;;;;;;;;5113076;28;20047;-82
2023/07/21 14:30:35;;;;;;;0.30;0.30;;;;;;;;;;5113573;28;20043;-82
2023/07/21 14:33:01;;;;;;;0.40;0.38;;;;;;;;;;5114131;28;20047;-82
2023/07/21 14:35:27;;;;;;;0.73;0.40;;;;;;;;;;5096240;28;20052;-82
2023/07/21 14:37:53;;;;;;;1.30;0.30;;;;;;;;;;5113306;28;20054;-82
2023/07/21 14:40:19;;;;;;;1.20;0.30;;;;;;;;;;5079990;28;20374;-82
2023/07/21 14:42:45;;;;;;;1.52;0.30;;;;;;;;;;5113291;28;20044;-81